Time,TemperatureF,DewpointF,PressureIn,WindDirection,WindDirectionDegrees,WindSpeedMPH,WindSpeedGustMPH,Humidity,HourlyPrecipIn,Conditions,Clouds,dailyrainin,SolarRadiationWatts/m^2,SoftwareType,DateUTC
2013-05-01 00:21:00,55.0,-3.0,-100.00,WNW,303,15.0,26.0,9,0.00,,,0.00,720.000000,,2013-05-01 00:21:00,
2013-05-01 01:21:00,55.0,1.0,-100.00,WNW,302,13.0,22.0,11,0.00,,,-99.99,531.000000,,2013-05-01 01:21:00,
2013-05-01 01:31:00,55.0,1.0,-100.00,WNW,302,13.0,22.0,11,0.00,,,-99.99,531.000000,,2013-05-01 01:31:00,
2013-05-01 03:21:00,47.0,6.0,-100.00,North,349,5.0,16.0,18,0.00,,,0.00,113.000000,,2013-05-01 03:21:00,
2013-05-01 03:33:00,47.0,6.0,-100.00,North,349,5.0,16.0,18,0.00,,,0.00,113.000000,,2013-05-01 03:33:00,
2013-05-01 04:22:00,42.0,9.0,-100.00,NNE,32,7.0,11.0,25,0.00,,,-99.99,4.000000,,2013-05-01 04:22:00,
2013-05-01 04:32:00,42.0,9.0,-100.00,NNE,32,7.0,11.0,25,0.00,,,-99.99,4.000000,,2013-05-01 04:32:00,
2013-05-01 04:42:00,42.0,9.0,-100.00,NNE,32,7.0,11.0,25,0.00,,,-99.99,4.000000,,2013-05-01 04:42:00,
2013-05-01 04:52:00,42.0,9.0,-100.00,NNE,32,7.0,11.0,25,0.00,,,-99.99,4.000000,,2013-05-01 04:52:00,
2013-05-01 05:21:00,38.0,12.0,-100.00,ENE,62,4.0,11.0,34,0.00,,,-99.99,1.000000,,2013-05-01 05:21:00,
2013-05-01 05:32:00,38.0,12.0,-100.00,ENE,62,4.0,11.0,34,0.00,,,-99.99,1.000000,,2013-05-01 05:32:00,
2013-05-01 05:41:00,38.0,12.0,-100.00,ENE,62,4.0,11.0,34,0.00,,,-99.99,1.000000,,2013-05-01 05:41:00,
2013-05-01 05:52:00,38.0,12.0,-100.00,ENE,62,4.0,11.0,34,0.00,,,-99.99,1.000000,,2013-05-01 05:52:00,
2013-05-01 06:22:00,36.0,15.0,-100.00,NE,40,6.0,10.0,41,0.00,,,0.00,1.000000,,2013-05-01 06:22:00,
2013-05-01 06:32:00,36.0,15.0,-100.00,NE,40,6.0,10.0,41,0.00,,,0.00,1.000000,,2013-05-01 06:32:00,
2013-05-01 06:42:00,36.0,15.0,-100.00,NE,40,6.0,10.0,41,0.00,,,0.00,1.000000,,2013-05-01 06:42:00,
2013-05-01 06:51:00,36.0,15.0,-100.00,NE,40,6.0,10.0,41,0.00,,,0.00,1.000000,,2013-05-01 06:51:00,
2013-05-01 07:21:00,33.0,17.0,-100.00,ENE,61,4.0,12.0,51,0.00,,,0.00,1.000000,,2013-05-01 07:21:00,
2013-05-01 07:32:00,33.0,17.0,-100.00,ENE,61,4.0,12.0,51,0.00,,,0.00,1.000000,,2013-05-01 07:32:00,
2013-05-01 07:41:00,33.0,17.0,-100.00,ENE,61,4.0,12.0,51,0.00,,,0.00,1.000000,,2013-05-01 07:41:00,
2013-05-01 07:52:00,33.0,17.0,-100.00,ENE,61,4.0,12.0,51,0.00,,,0.00,1.000000,,2013-05-01 07:52:00,
2013-05-01 08:21:00,32.0,19.0,-100.00,NE,50,8.0,11.0,59,0.00,,,-99.99,1.000000,,2013-05-01 08:21:00,
2013-05-01 08:31:00,32.0,19.0,-100.00,NE,50,8.0,11.0,59,0.00,,,-99.99,1.000000,,2013-05-01 08:31:00,
2013-05-01 08:42:00,32.0,19.0,-100.00,NE,50,8.0,11.0,59,0.00,,,-99.99,1.000000,,2013-05-01 08:42:00,
2013-05-01 08:52:00,32.0,19.0,-100.00,NE,50,8.0,11.0,59,0.00,,,-99.99,1.000000,,2013-05-01 08:52:00,
2013-05-01 09:21:00,30.0,19.0,-100.00,NE,38,6.0,15.0,62,0.00,,,0.00,1.000000,,2013-05-01 09:21:00,
2013-05-01 09:33:00,30.0,19.0,-100.00,NE,38,6.0,15.0,62,0.00,,,0.00,1.000000,,2013-05-01 09:33:00,
2013-05-01 09:42:00,30.0,19.0,-100.00,NE,38,6.0,15.0,62,0.00,,,0.00,1.000000,,2013-05-01 09:42:00,
2013-05-01 09:52:00,30.0,19.0,-100.00,NE,38,6.0,15.0,62,0.00,,,0.00,1.000000,,2013-05-01 09:52:00,
2013-05-01 10:22:00,29.0,19.0,-100.00,NE,47,6.0,10.0,65,0.00,,,0.00,1.000000,,2013-05-01 10:22:00,
2013-05-01 10:33:00,29.0,19.0,-100.00,NE,47,6.0,10.0,65,0.00,,,0.00,1.000000,,2013-05-01 10:33:00,
2013-05-01 10:42:00,29.0,19.0,-100.00,NE,47,6.0,10.0,65,0.00,,,0.00,1.000000,,2013-05-01 10:42:00,
2013-05-01 10:52:00,29.0,19.0,-100.00,NE,47,6.0,10.0,65,0.00,,,0.00,1.000000,,2013-05-01 10:52:00,
2013-05-01 11:22:00,27.0,18.0,-100.00,NE,47,4.0,11.0,68,0.00,,,0.00,1.000000,,2013-05-01 11:22:00,
2013-05-01 11:32:00,27.0,18.0,-100.00,NE,47,4.0,11.0,68,0.00,,,0.00,1.000000,,2013-05-01 11:32:00,
2013-05-01 11:42:00,27.0,18.0,-100.00,NE,47,4.0,11.0,68,0.00,,,0.00,1.000000,,2013-05-01 11:42:00,
2013-05-01 11:51:00,27.0,18.0,-100.00,NE,47,4.0,11.0,68,0.00,,,0.00,1.000000,,2013-05-01 11:51:00,
2013-05-01 12:21:00,26.0,18.0,-100.00,ENE,63,5.0,7.0,71,0.00,,,0.00,1.000000,,2013-05-01 12:21:00,
2013-05-01 12:31:00,26.0,18.0,-100.00,ENE,63,5.0,7.0,71,0.00,,,0.00,1.000000,,2013-05-01 12:31:00,
2013-05-01 12:41:00,26.0,18.0,-100.00,ENE,63,5.0,7.0,71,0.00,,,0.00,1.000000,,2013-05-01 12:41:00,
2013-05-01 12:51:00,26.0,18.0,-100.00,ENE,63,5.0,7.0,71,0.00,,,0.00,1.000000,,2013-05-01 12:51:00,
2013-05-01 13:21:00,26.0,18.0,-100.00,NE,55,5.0,9.0,71,0.00,,,-99.99,1.000000,,2013-05-01 13:21:00,
2013-05-01 13:31:00,26.0,18.0,-100.00,NE,55,5.0,9.0,71,0.00,,,-99.99,1.000000,,2013-05-01 13:31:00,
2013-05-01 13:42:00,26.0,18.0,-100.00,NE,55,5.0,9.0,71,0.00,,,-99.99,1.000000,,2013-05-01 13:42:00,
2013-05-01 13:52:00,26.0,18.0,-100.00,NE,55,5.0,9.0,71,0.00,,,-99.99,1.000000,,2013-05-01 13:52:00,
2013-05-01 14:21:00,27.0,18.0,-100.00,ENE,61,5.0,10.0,68,0.00,,,-99.99,18.000000,,2013-05-01 14:21:00,
2013-05-01 14:31:00,27.0,18.0,-100.00,ENE,61,5.0,10.0,68,0.00,,,-99.99,18.000000,,2013-05-01 14:31:00,
2013-05-01 14:41:00,27.0,18.0,-100.00,ENE,61,5.0,10.0,68,0.00,,,-99.99,18.000000,,2013-05-01 14:41:00,
2013-05-01 14:51:00,27.0,18.0,-100.00,ENE,61,5.0,10.0,68,0.00,,,-99.99,18.000000,,2013-05-01 14:51:00,
2013-05-01 15:21:00,34.0,20.0,-100.00,NNE,32,7.0,11.0,55,0.00,,,0.00,170.000000,,2013-05-01 15:21:00,
2013-05-01 15:33:00,34.0,20.0,-100.00,NNE,32,7.0,11.0,55,0.00,,,0.00,170.000000,,2013-05-01 15:33:00,
2013-05-01 15:42:00,34.0,20.0,-100.00,NNE,32,7.0,11.0,55,0.00,,,0.00,170.000000,,2013-05-01 15:42:00,
2013-05-01 15:53:00,34.0,20.0,-100.00,NNE,32,7.0,11.0,55,0.00,,,0.00,170.000000,,2013-05-01 15:53:00,
2013-05-01 16:22:00,39.0,19.0,-100.00,NE,34,8.0,14.0,44,0.00,,,-99.99,426.000000,,2013-05-01 16:22:00,
2013-05-01 16:31:00,39.0,19.0,-100.00,NE,34,8.0,14.0,44,0.00,,,-99.99,426.000000,,2013-05-01 16:31:00,
2013-05-01 16:42:00,39.0,19.0,-100.00,NE,34,8.0,14.0,44,0.00,,,-99.99,426.000000,,2013-05-01 16:42:00,
2013-05-01 16:53:00,39.0,19.0,-100.00,NE,34,8.0,14.0,44,0.00,,,-99.99,426.000000,,2013-05-01 16:53:00,
2013-05-01 17:21:00,45.0,19.0,-100.00,NE,36,6.0,12.0,35,0.00,,,0.00,622.000000,,2013-05-01 17:21:00,
2013-05-01 17:31:00,45.0,19.0,-100.00,NE,36,6.0,12.0,35,0.00,,,0.00,622.000000,,2013-05-01 17:31:00,
2013-05-01 17:42:00,45.0,19.0,-100.00,NE,36,6.0,12.0,35,0.00,,,0.00,622.000000,,2013-05-01 17:42:00,
2013-05-01 17:52:00,45.0,19.0,-100.00,NE,36,6.0,12.0,35,0.00,,,0.00,622.000000,,2013-05-01 17:52:00,
2013-05-01 18:22:00,51.0,17.0,-100.00,ENE,73,5.0,13.0,26,0.00,,,0.00,790.000000,,2013-05-01 18:22:00,
2013-05-01 18:41:00,51.0,17.0,-100.00,ENE,73,5.0,13.0,26,0.00,,,0.00,790.000000,,2013-05-01 18:41:00,
2013-05-01 18:52:00,51.0,17.0,-100.00,ENE,73,5.0,13.0,26,0.00,,,0.00,790.000000,,2013-05-01 18:52:00,
2013-05-01 19:22:00,55.0,15.0,-100.00,East,95,7.0,12.0,20,0.00,,,0.00,920.000000,,2013-05-01 19:22:00,
2013-05-01 19:32:00,55.0,15.0,-100.00,East,95,7.0,12.0,20,0.00,,,0.00,920.000000,,2013-05-01 19:32:00,
2013-05-01 19:42:00,55.0,15.0,-100.00,East,95,7.0,12.0,20,0.00,,,0.00,920.000000,,2013-05-01 19:42:00,
2013-05-01 19:52:00,55.0,15.0,-100.00,East,95,7.0,12.0,20,0.00,,,0.00,920.000000,,2013-05-01 19:52:00,
2013-05-01 20:21:00,58.0,12.0,-100.00,ESE,107,8.0,14.0,16,0.00,,,0.00,994.000000,,2013-05-01 20:21:00,
2013-05-01 20:31:00,58.0,12.0,-100.00,ESE,107,8.0,14.0,16,0.00,,,0.00,994.000000,,2013-05-01 20:31:00,
2013-05-01 20:42:00,58.0,12.0,-100.00,ESE,107,8.0,14.0,16,0.00,,,0.00,994.000000,,2013-05-01 20:42:00,
2013-05-01 20:52:00,58.0,12.0,-100.00,ESE,107,8.0,14.0,16,0.00,,,0.00,994.000000,,2013-05-01 20:52:00,
2013-05-01 21:22:00,62.0,9.0,-100.00,East,79,5.0,18.0,12,0.00,,,0.00,1007.000000,,2013-05-01 21:22:00,
2013-05-01 21:43:00,62.0,9.0,-100.00,East,79,5.0,18.0,12,0.00,,,0.00,1007.000000,,2013-05-01 21:43:00,
2013-05-01 21:52:00,62.0,9.0,-100.00,East,79,5.0,18.0,12,0.00,,,0.00,1007.000000,,2013-05-01 21:52:00,
2013-05-01 22:23:00,63.0,19.0,-100.00,WSW,247,5.0,16.0,18,0.00,,,0.00,966.000000,,2013-05-01 22:23:00,
2013-05-01 22:33:00,63.0,19.0,-100.00,WSW,247,5.0,16.0,18,0.00,,,0.00,966.000000,,2013-05-01 22:33:00,
2013-05-01 22:42:00,63.0,19.0,-100.00,WSW,247,5.0,16.0,18,0.00,,,0.00,966.000000,,2013-05-01 22:42:00,
2013-05-01 22:52:00,63.0,19.0,-100.00,WSW,247,5.0,16.0,18,0.00,,,0.00,966.000000,,2013-05-01 22:52:00,
2013-05-01 23:21:00,65.0,11.0,-100.00,ENE,68,5.0,13.0,12,0.00,,,0.00,866.000000,,2013-05-01 23:21:00,
2013-05-01 23:32:00,65.0,11.0,-100.00,ENE,68,5.0,13.0,12,0.00,,,0.00,866.000000,,2013-05-01 23:32:00,
2013-05-01 23:42:00,65.0,11.0,-100.00,ENE,68,5.0,13.0,12,0.00,,,0.00,866.000000,,2013-05-01 23:42:00,
2013-05-01 23:52:00,65.0,11.0,-100.00,ENE,68,5.0,13.0,12,0.00,,,0.00,866.000000,,2013-05-01 23:52:00,